Time;durP1;ratioP1;P1;durP2;ratioP2;P2;SDS_P1;SDS_P2;PMS_P1;PMS_P2;Temp;Humidity;BMP_temperature;BMP_pressure;BME280_temperature;BME280_humidity;BME280_pressure;Samples;Min_cycle;Max_cycle;Signal;HPM_P1;HPM_P2
2022/08/06 00:00:06;;;;;;;2.30;1.20;;;;;;;8.66;100.00;101115.56;7395815;19;20010;-58
2022/08/06 00:02:38;;;;;;;3.42;1.55;;;;;;;8.61;100.00;101122.41;7395226;19;20750;-58
2022/08/06 00:05:05;;;;;;;6.47;2.33;;;;;;;8.57;100.00;101121.69;7394654;19;20006;-58
2022/08/06 00:07:31;;;;;;;3.00;1.80;;;;;;;8.53;100.00;101121.00;7397984;19;20007;-58
2022/08/06 00:09:57;;;;;;;6.90;1.33;;;;;;;8.50;100.00;101116.31;7394716;19;20034;-59
2022/08/06 00:12:23;;;;;;;5.82;2.20;;;;;;;8.51;100.00;101131.72;7397777;19;20010;-58
2022/08/06 00:14:49;;;;;;;16.75;1.83;;;;;;;8.51;100.00;101120.63;7394329;19;20015;-59
2022/08/06 00:17:18;;;;;;;3.17;2.17;;;;;;;8.49;100.00;101120.28;7397426;19;20014;-58
2022/08/06 00:19:44;;;;;;;5.78;1.60;;;;;;;8.48;100.00;101127.06;7391833;19;20084;-59
2022/08/06 00:22:10;;;;;;;9.85;1.98;;;;;;;8.49;100.00;101125.81;7394354;19;20034;-58
2022/08/06 00:24:36;;;;;;;4.97;1.92;;;;;;;8.48;100.00;101121.50;7393739;19;20007;-58
2022/08/06 00:27:03;;;;;;;6.45;1.75;;;;;;;8.48;100.00;101121.50;7395082;19;20010;-58
2022/08/06 00:29:29;;;;;;;8.93;1.98;;;;;;;8.47;100.00;101119.91;7391873;19;20018;-58
2022/08/06 00:31:55;;;;;;;10.27;2.22;;;;;;;8.45;100.00;101127.91;7393319;19;20011;-59
2022/08/06 00:34:21;;;;;;;2.97;1.35;;;;;;;8.40;100.00;101131.19;7394697;19;20108;-58
2022/08/06 00:36:47;;;;;;;5.15;2.35;;;;;;;8.36;100.00;101124.91;7395417;19;20034;-58
2022/08/06 00:39:13;;;;;;;2.15;1.05;;;;;;;8.31;100.00;101133.78;7392396;19;20070;-58
2022/08/06 00:41:40;;;;;;;7.30;2.13;;;;;;;8.24;100.00;101131.09;7394920;19;20028;-58
2022/08/06 00:44:06;;;;;;;2.38;1.52;;;;;;;8.20;100.00;101122.09;7394204;19;20014;-59
2022/08/06 00:46:32;;;;;;;2.50;1.40;;;;;;;8.19;100.00;101114.97;7395639;19;20018;-58
2022/08/06 00:48:59;;;;;;;6.80;1.85;;;;;;;8.17;100.00;101117.38;7394027;19;20011;-58
2022/08/06 00:51:25;;;;;;;4.18;1.33;;;;;;;8.15;100.00;101120.59;7393446;19;20010;-58
2022/08/06 00:53:52;;;;;;;2.80;0.95;;;;;;;8.13;100.00;101116.69;7391393;19;20018;-59
2022/08/06 00:56:18;;;;;;;5.55;2.05;;;;;;;8.10;100.00;101117.56;7392664;19;20464;-58
2022/08/06 00:58:45;;;;;;;7.25;2.28;;;;;;;8.06;100.00;101112.06;7390530;19;20464;-58
2022/08/06 01:01:12;;;;;;;13.13;2.00;;;;;;;8.03;100.00;101117.69;7392212;19;20358;-58
2022/08/06 01:03:38;;;;;;;2.15;1.67;;;;;;;7.98;100.00;101120.94;7393337;19;20014;-58
2022/08/06 01:06:04;;;;;;;2.40;1.60;;;;;;;7.95;100.00;101125.34;7394293;19;20031;-58
2022/08/06 01:08:30;;;;;;;2.47;1.52;;;;;;;7.92;100.00;101122.66;7394879;19;20024;-58
2022/08/06 01:10:56;;;;;;;6.78;1.90;;;;;;;7.90;100.00;101130.63;7393571;19;20095;-58
2022/08/06 01:13:22;;;;;;;3.13;1.27;;;;;;;7.89;100.00;101134.59;7393237;19;20011;-58
2022/08/06 01:16:12;;;;;;;2.75;1.17;;;;;;;7.90;100.00;101142.50;7392679;19;20022;-58
2022/08/06 01:19:01;;;;;;;2.65;2.25;;;;;;;7.85;100.00;101134.69;7391690;19;20456;-58
2022/08/06 01:22:05;;;;;;;3.47;1.15;;;;;;;7.81;100.00;101138.72;7392191;19;20010;-58
2022/08/06 01:24:50;;;;;;;3.30;2.25;;;;;;;7.74;100.00;101128.56;7389651;19;20018;-58
2022/08/06 01:27:33;;;;;;;2.40;1.45;;;;;;;7.70;100.00;101127.06;7394471;19;20022;-58
2022/08/06 01:30:05;;;;;;;9.48;2.42;;;;;;;7.69;100.00;101142.13;7392457;19;20403;-57
2022/08/06 01:32:37;;;;;;;5.05;2.03;;;;;;;7.71;100.00;101136.94;7392355;19;20006;-58
2022/08/06 01:35:11;;;;;;;3.95;2.00;;;;;;;7.69;100.00;101147.69;7392827;19;20029;-58
2022/08/06 01:37:50;;;;;;;1.33;1.23;;;;;;;7.73;100.00;101135.31;7394856;19;20019;-58
2022/08/06 01:40:21;;;;;;;7.82;2.50;;;;;;;7.75;100.00;101145.97;7392053;19;20066;-58
2022/08/06 01:42:49;;;;;;;2.05;1.13;;;;;;;7.79;100.00;101130.06;7395071;19;20018;-58
2022/08/06 01:45:18;;;;;;;6.88;1.88;;;;;;;7.78;100.00;101128.47;7391551;19;20010;-58
2022/08/06 01:47:49;;;;;;;4.20;2.58;;;;;;;7.76;100.00;101125.34;7396203;19;20029;-58
2022/08/06 01:50:17;;;;;;;;;;;;;;;7.71;100.00;101128.63;7392196;19;20078;-58
2022/08/06 01:52:44;;;;;;;2.05;1.23;;;;;;;7.65;100.00;101131.88;7387823;19;20744;-58
2022/08/06 01:55:14;;;;;;;5.13;1.75;;;;;;;7.61;100.00;101135.94;7388653;19;20013;-58
2022/08/06 01:57:46;;;;;;;5.65;2.25;;;;;;;7.56;100.00;101133.63;7393043;19;20065;-57
2022/08/06 02:00:13;;;;;;;10.60;3.10;;;;;;;7.55;100.00;101130.09;7389528;19;20014;-58
2022/08/06 02:02:42;;;;;;;4.93;1.67;;;;;;;7.54;100.00;101136.03;7390293;19;20014;-58
2022/08/06 02:05:09;;;;;;;1.42;0.98;;;;;;;7.55;100.00;101130.09;7389568;19;20038;-57
2022/08/06 02:07:40;;;;;;;3.10;1.45;;;;;;;7.60;100.00;101137.91;7394886;19;20002;-57
2022/08/06 02:10:08;;;;;;;;;;;;;;;7.61;100.00;101136.72;7391146;19;20019;-58
2022/08/06 02:12:36;;;;;;;5.82;1.70;;;;;;;7.61;100.00;101131.16;7394698;19;20248;-57
2022/08/06 02:15:11;;;;;;;7.65;2.72;;;;;;;7.60;100.00;101135.13;7390749;19;20077;-58
2022/08/06 02:17:42;;;;;;;1.95;1.08;;;;;;;7.57;100.00;101140.75;7395112;19;20027;-57
2022/08/06 02:20:11;;;;;;;13.43;2.35;;;;;;;7.49;100.00;101133.78;7391715;19;20019;-57
2022/08/06 02:22:39;;;;;;;7.35;2.00;;;;;;;7.41;100.00;101137.88;7390680;19;20011;-57
2022/08/06 02:25:11;;;;;;;6.10;2.03;;;;;;;7.37;100.00;101142.69;7390718;19;20010;-57
2022/08/06 02:27:43;;;;;;;1.30;0.65;;;;;;;7.37;100.00;101137.94;7392459;19;20022;-57
2022/08/06 02:30:12;;;;;;;2.30;1.67;;;;;;;7.35;100.00;101139.56;7388427;19;20014;-57
2022/08/06 02:32:38;;;;;;;6.38;2.17;;;;;;;7.33;100.00;101131.69;7390938;19;20006;-57
2022/08/06 02:35:05;;;;;;;2.97;1.58;;;;;;;7.32;100.00;101146.72;7390094;19;20010;-57
2022/08/06 02:37:38;;;;;;;3.40;1.42;;;;;;;7.31;100.00;101139.63;7393782;19;20352;-57
2022/08/06 02:40:35;;;;;;;3.22;2.08;;;;;;;7.25;100.00;101141.31;7389987;19;20010;-57
2022/08/06 02:43:07;;;;;;;2.90;1.20;;;;;;;7.23;100.00;101132.66;7389194;19;20007;-57
2022/08/06 02:45:39;;;;;;;5.25;2.25;;;;;;;7.20;100.00;101132.69;7388783;19;20048;-57
2022/08/06 02:48:18;;;;;;;3.85;1.92;;;;;;;7.17;100.00;101142.63;7392749;19;20465;-57
2022/08/06 02:50:48;;;;;;;6.90;1.02;;;;;;;7.15;100.00;101141.47;7389051;19;20409;-57
2022/08/06 02:53:21;;;;;;;2.55;2.35;;;;;;;7.14;100.00;101137.94;7390094;19;20432;-57
2022/08/06 02:55:50;;;;;;;2.95;1.95;;;;;;;7.14;100.00;101151.78;7389902;19;20602;-57
2022/08/06 02:58:29;;;;;;;7.90;1.95;;;;;;;7.12;100.00;101148.66;7389338;19;20659;-57
2022/08/06 03:00:59;;;;;;;1.98;1.45;;;;;;;7.12;100.00;101147.88;7389093;19;20014;-57
2022/08/06 03:03:26;;;;;;;5.38;1.67;;;;;;;7.11;100.00;101147.09;7387920;19;20006;-57
2022/08/06 03:05:55;;;;;;;3.38;1.83;;;;;;;7.08;100.00;101147.91;7389426;19;20043;-57
2022/08/06 03:08:24;;;;;;;3.85;1.05;;;;;;;7.03;100.00;101150.38;7390774;19;20015;-57
2022/08/06 03:10:54;;;;;;;1.42;1.30;;;;;;;7.00;100.00;101152.00;7389198;19;20014;-57
2022/08/06 03:13:22;;;;;;;8.52;1.50;;;;;;;7.00;100.00;101148.44;7387966;19;20362;-57
2022/08/06 03:15:49;;;;;;;4.57;2.17;;;;;;;6.94;100.00;101150.91;7388264;19;20039;-57
2022/08/06 03:18:17;;;;;;;1.30;1.20;;;;;;;6.89;100.00;101141.09;7392573;19;20010;-57
2022/08/06 03:20:44;;;;;;;3.90;1.88;;;;;;;6.83;100.00;101147.53;7394391;19;20015;-57
2022/08/06 03:23:12;;;;;;;4.53;1.60;;;;;;;6.81;100.00;101147.16;7394575;19;20007;-57
2022/08/06 03:25:39;;;;;;;3.85;0.60;;;;;;;6.80;100.00;101149.16;7396300;19;20002;-57
2022/08/06 03:28:07;;;;;;;5.40;1.60;;;;;;;6.80;100.00;101153.88;7400024;19;20015;-57
2022/08/06 03:30:35;;;;;;;2.08;1.52;;;;;;;6.78;100.00;101151.56;7396516;19;20801;-57
2022/08/06 03:33:06;;;;;;;2.28;1.48;;;;;;;6.79;100.00;101152.34;7396651;19;20014;-57
2022/08/06 03:35:34;;;;;;;4.88;1.45;;;;;;;6.76;100.00;101153.16;7396723;19;20014;-57
2022/08/06 03:38:01;;;;;;;3.17;1.50;;;;;;;6.77;100.00;101154.75;7399416;19;20110;-57
2022/08/06 03:40:29;;;;;;;1.70;1.58;;;;;;;6.69;100.00;101158.81;7393941;19;20022;-57
2022/08/06 03:42:55;;;;;;;3.22;2.08;;;;;;;6.67;100.00;101159.22;7399800;19;20138;-58
2022/08/06 03:45:23;;;;;;;4.30;2.13;;;;;;;6.63;100.00;101166.78;7397056;19;20485;-57
2022/08/06 03:47:55;;;;;;;2.97;1.08;;;;;;;6.59;100.00;101168.03;7399143;19;20443;-57
2022/08/06 03:50:25;;;;;;;3.45;1.15;;;;;;;6.56;100.00;101163.34;7395733;19;20014;-57
2022/08/06 03:52:59;;;;;;;3.47;2.33;;;;;;;6.58;100.00;101166.50;7395703;19;20062;-57
2022/08/06 03:55:30;;;;;;;8.85;1.40;;;;;;;6.56;100.00;101155.81;7395336;19;20015;-57
2022/08/06 03:58:01;;;;;;;2.75;1.15;;;;;;;6.56;100.00;101155.06;7399294;19;20017;-57
2022/08/06 04:00:32;;;;;;;7.45;1.55;;;;;;;6.56;100.00;101160.59;7396011;19;20351;-57
2022/08/06 04:02:59;;;;;;;3.40;2.20;;;;;;;6.56;100.00;101155.06;7395650;19;20010;-57
2022/08/06 04:05:30;;;;;;;5.65;1.30;;;;;;;6.53;100.00;101162.19;7394488;19;20031;-57
2022/08/06 04:07:59;;;;;;;2.47;1.33;;;;;;;6.53;100.00;101175.25;7398373;19;20043;-57
2022/08/06 04:10:36;;;;;;;2.88;1.77;;;;;;;6.53;100.00;101178.00;7395406;19;20017;-57
2022/08/06 04:13:05;;;;;;;1.58;0.75;;;;;;;6.48;100.00;101182.03;7400732;19;20026;-57
2022/08/06 04:15:31;;;;;;;5.03;1.45;;;;;;;6.41;100.00;101170.28;7394962;19;20011;-57
2022/08/06 04:17:58;;;;;;;9.65;2.42;;;;;;;6.37;100.00;101175.84;7399177;19;20031;-57
2022/08/06 04:20:25;;;;;;;2.45;1.08;;;;;;;6.34;100.00;101175.91;7395029;19;20014;-57
2022/08/06 04:22:52;;;;;;;2.38;1.60;;;;;;;6.35;100.00;101182.97;7394609;19;20685;-57
2022/08/06 04:25:18;;;;;;;1.75;1.25;;;;;;;6.33;100.00;101179.84;7394828;19;20011;-57
2022/08/06 04:27:47;;;;;;;4.93;2.28;;;;;;;6.33;100.00;101179.84;7399274;19;20340;-57
2022/08/06 04:30:14;;;;;;;2.20;2.00;;;;;;;6.29;100.00;101179.13;7394076;19;20014;-57
2022/08/06 04:32:43;;;;;;;1.42;1.23;;;;;;;6.25;100.00;101184.69;7394477;19;20022;-57
2022/08/06 04:35:11;;;;;;;8.50;1.92;;;;;;;6.22;100.00;101182.75;7391707;19;20348;-57
2022/08/06 04:37:38;;;;;;;4.38;1.52;;;;;;;6.23;100.00;101180.78;7397508;19;20003;-57
2022/08/06 04:40:07;;;;;;;1.58;1.45;;;;;;;6.27;100.00;101181.50;7394260;19;20049;-57
2022/08/06 04:42:34;;;;;;;5.57;1.73;;;;;;;6.29;100.00;101184.66;7398449;19;20014;-57
2022/08/06 04:45:00;;;;;;;3.47;1.45;;;;;;;6.30;100.00;101186.22;7394904;19;20015;-57
2022/08/06 04:47:30;;;;;;;3.03;0.55;;;;;;;6.32;100.00;101194.91;7396661;19;20010;-57
2022/08/06 04:49:57;;;;;;;7.10;1.60;;;;;;;6.32;100.00;101194.91;7390810;19;20374;-57
2022/08/06 04:52:26;;;;;;;10.57;2.65;;;;;;;6.31;100.00;101199.63;7390058;19;20053;-57
2022/08/06 04:54:52;;;;;;;3.67;1.70;;;;;;;6.27;100.00;101200.88;7393825;19;20015;-57
2022/08/06 04:57:19;;;;;;;2.22;1.73;;;;;;;6.24;100.00;101193.41;7396506;19;20559;-57
2022/08/06 04:59:45;;;;;;;5.93;2.33;;;;;;;6.18;100.00;101192.28;7393007;19;20369;-57
2022/08/06 05:02:12;;;;;;;1.73;0.95;;;;;;;6.18;100.00;101200.59;7392742;19;20007;-57
2022/08/06 05:04:40;;;;;;;5.45;1.88;;;;;;;6.20;100.00;101198.19;7394348;19;20011;-57
2022/08/06 05:07:15;;;;;;;2.30;1.23;;;;;;;6.23;100.00;101202.91;7395610;19;20095;-57
2022/08/06 05:09:41;;;;;;;2.50;1.45;;;;;;;6.26;100.00;101202.09;7390427;19;20028;-57
2022/08/06 05:12:51;;;;;;;0.73;0.73;;;;;;;6.27;100.00;101206.41;7394372;19;20010;-57
2022/08/06 05:15:34;;;;;;;4.75;2.15;;;;;;;6.30;100.00;101191.75;7392649;19;20029;-57
2022/08/06 05:18:07;;;;;;;4.05;1.40;;;;;;;6.33;100.00;101191.69;7395399;19;20017;-57
2022/08/06 05:20:40;;;;;;;1.33;1.23;;;;;;;6.36;100.00;101201.16;7392051;19;20016;-57
2022/08/06 05:23:34;;;;;;;0.63;0.63;;;;;;;6.41;100.00;101197.94;7391625;19;20017;-57
2022/08/06 05:26:00;;;;;;;4.32;1.67;;;;;;;6.49;100.00;101204.94;7392246;19;20017;-57
2022/08/06 05:28:27;;;;;;;2.85;1.33;;;;;;;6.55;100.00;101217.13;7389647;19;20010;-57
2022/08/06 05:30:53;;;;;;;3.53;2.30;;;;;;;6.61;100.00;101207.16;7392037;19;20014;-57
2022/08/06 05:33:31;;;;;;;4.07;2.00;;;;;;;6.68;100.00;101207.06;7392800;19;20471;-57
2022/08/06 05:35:59;;;;;;;2.80;1.98;;;;;;;6.73;100.00;101199.09;7392736;19;20010;-58
2022/08/06 05:38:28;;;;;;;5.45;1.58;;;;;;;6.79;100.00;101207.72;7392893;19;20074;-57
2022/08/06 05:40:58;;;;;;;4.78;1.73;;;;;;;6.82;100.00;101206.88;7391123;19;20015;-57
2022/08/06 05:43:25;;;;;;;1.85;1.25;;;;;;;6.89;100.00;101221.41;7391029;19;20464;-57
2022/08/06 05:45:56;;;;;;;2.85;1.08;;;;;;;6.93;100.00;101223.34;7390680;19;20028;-57
2022/08/06 05:48:23;;;;;;;;;;;;;;;6.98;100.00;101231.97;7390570;19;20003;-57
2022/08/06 05:50:59;;;;;;;2.83;1.13;;;;;;;7.03;100.00;101223.19;7389632;19;19918;-57
2022/08/06 05:53:33;;;;;;;2.17;1.63;;;;;;;7.11;100.00;101223.84;7389710;19;20011;-57
2022/08/06 05:56:06;;;;;;;1.15;0.77;;;;;;;7.19;100.00;101226.09;7390419;19;20010;-57
2022/08/06 05:58:39;;;;;;;2.55;1.42;;;;;;;7.27;100.00;101233.13;7389209;19;20018;-57
2022/08/06 06:01:07;;;;;;;1.80;1.08;;;;;;;7.35;100.00;101237.34;7389335;19;20015;-57
2022/08/06 06:03:35;;;;;;;3.35;1.58;;;;;;;7.43;100.00;101232.44;7389035;19;20017;-57
2022/08/06 06:06:03;;;;;;;0.98;0.98;;;;;;;7.51;100.00;101226.38;7389434;19;20024;-59
2022/08/06 06:08:29;;;;;;;1.65;1.05;;;;;;;7.59;100.00;101227.84;7392957;19;20042;-59
2022/08/06 06:10:56;;;;;;;2.75;1.38;;;;;;;7.68;100.00;101229.28;7389969;19;20018;-59
2022/08/06 06:13:24;;;;;;;4.35;1.30;;;;;;;7.78;100.00;101234.63;7388881;19;20025;-59
2022/08/06 06:16:13;;;;;;;7.22;2.10;;;;;;;7.87;100.00;101228.53;7389229;19;20011;-59
2022/08/06 06:18:53;;;;;;;3.55;1.50;;;;;;;7.98;100.00;101231.91;7389120;19;20493;-59
2022/08/06 06:21:32;;;;;;;3.92;1.73;;;;;;;8.10;100.00;101239.63;7388936;19;20007;-59
2022/08/06 06:24:20;;;;;;;4.80;1.77;;;;;;;8.21;100.00;101240.19;7388720;19;20513;-59
2022/08/06 06:26:55;;;;;;;3.88;1.88;;;;;;;8.29;100.00;101245.19;7387923;19;20018;-59
2022/08/06 06:29:27;;;;;;;4.43;1.77;;;;;;;8.36;100.00;101244.28;7384867;19;20456;-59
2022/08/06 06:32:01;;;;;;;3.70;1.25;;;;;;;8.43;100.00;101244.13;7388176;19;20089;-59
2022/08/06 06:34:46;;;;;;;4.50;2.22;;;;;;;8.55;100.00;101243.50;7389471;19;20031;-59
2022/08/06 06:37:19;;;;;;;8.07;2.38;;;;;;;8.67;100.00;101256.75;7392015;19;20015;-59
2022/08/06 06:40:12;;;;;;;2.50;1.55;;;;;;;8.81;100.00;101250.09;7389197;19;20038;-59
2022/08/06 06:42:47;;;;;;;16.25;3.67;;;;;;;8.93;100.00;101255.78;7393075;19;20011;-58
2022/08/06 06:45:19;;;;;;;14.63;3.95;;;;;;;9.05;100.00;101248.78;7388330;19;20014;-59
2022/08/06 06:47:59;;;;;;;7.85;2.83;;;;;;;9.22;100.00;101255.16;7390262;19;20049;-59
2022/08/06 06:50:30;;;;;;;14.93;3.40;;;;;;;9.41;100.00;101249.53;7388684;19;20010;-59
2022/08/06 06:52:57;;;;;;;7.87;3.23;;;;;;;9.70;100.00;101255.19;7388766;19;20102;-59
2022/08/06 06:55:37;;;;;;;8.48;2.10;;;;;;;10.04;100.00;101263.81;7388755;19;20021;-59
2022/08/06 06:58:11;;;;;;;7.35;2.55;;;;;;;10.32;100.00;101265.88;7388310;19;20078;-59
2022/08/06 07:00:38;;;;;;;2.13;1.67;;;;;;;10.57;100.00;101268.75;7386180;19;20011;-59
2022/08/06 07:03:06;;;;;;;11.50;2.05;;;;;;;10.79;100.00;101266.13;7386197;19;20007;-60
2022/08/06 07:05:34;;;;;;;11.30;3.47;;;;;;;10.95;100.00;101254.13;7386254;19;20010;-60
2022/08/06 07:08:04;;;;;;;6.80;2.00;;;;;;;11.13;100.00;101262.72;7389705;19;20463;-60
2022/08/06 07:10:31;;;;;;;9.65;3.70;;;;;;;11.30;100.00;101266.97;7387664;19;20019;-59
2022/08/06 07:12:59;;;;;;;4.13;1.80;;;;;;;11.38;100.00;101262.72;7393813;19;20088;-59
2022/08/06 07:15:26;;;;;;;6.50;2.55;;;;;;;11.46;100.00;101263.28;7386544;19;20006;-59
2022/08/06 07:17:53;;;;;;;5.97;2.53;;;;;;;11.43;100.00;101262.19;7392760;19;20015;-59
2022/08/06 07:20:26;;;;;;;6.20;2.03;;;;;;;11.43;100.00;101257.34;7389771;19;20019;-59
2022/08/06 07:22:55;;;;;;;6.60;3.60;;;;;;;11.50;100.00;101267.50;7389977;19;20140;-59
2022/08/06 07:25:22;;;;;;;5.78;2.63;;;;;;;11.59;100.00;101270.41;7389628;19;20018;-59
2022/08/06 07:27:50;;;;;;;2.90;1.20;;;;;;;11.63;100.00;101276.66;7392758;19;20078;-59
2022/08/06 07:30:18;;;;;;;7.50;3.08;;;;;;;11.68;100.00;101273.34;7388693;19;20014;-59
2022/08/06 07:32:47;;;;;;;7.25;3.05;;;;;;;11.75;100.00;101273.09;7389008;19;20015;-59
2022/08/06 07:35:18;;;;;;;8.13;2.05;;;;;;;11.76;100.00;101280.22;7388486;19;20007;-59
2022/08/06 07:37:56;;;;;;;9.65;2.95;;;;;;;11.86;100.00;101279.13;7391376;19;20038;-59
2022/08/06 07:40:45;;;;;;;3.60;2.08;;;;;;;11.98;100.00;101278.28;7387179;19;20584;-59
2022/08/06 07:43:27;;;;;;;5.65;2.58;;;;;;;12.06;100.00;101267.69;7386571;19;20010;-59
2022/08/06 07:45:56;;;;;;;3.28;1.85;;;;;;;12.08;100.00;101273.59;7387516;19;20380;-59
2022/08/06 07:48:35;;;;;;;8.23;2.65;;;;;;;12.12;100.00;101275.03;7387546;19;20090;-59
2022/08/06 07:51:03;;;;;;;4.97;1.88;;;;;;;12.18;100.00;101270.41;7388431;19;20013;-59
2022/08/06 07:53:31;;;;;;;4.00;1.75;;;;;;;12.27;100.00;101271.72;7389169;19;20011;-59
2022/08/06 07:55:59;;;;;;;6.00;2.05;;;;;;;12.34;100.00;101277.06;7387257;19;20014;-59
2022/08/06 07:58:26;;;;;;;9.68;1.75;;;;;;;12.44;100.00;101273.09;7388081;19;20039;-59
2022/08/06 08:00:53;;;;;;;7.80;2.75;;;;;;;12.54;100.00;101280.34;7388303;19;20011;-59
2022/08/06 08:06:24;;;;;;;5.43;2.28;;;;;;;12.74;100.00;101267.59;7395500;19;20411;-58
2022/08/06 08:08:54;;;;;;;5.38;2.05;;;;;;;12.95;100.00;101272.38;7397544;19;20078;-59
2022/08/06 08:11:23;;;;;;;4.93;2.58;;;;;;;13.05;100.00;101273.25;7396329;19;20010;-58
2022/08/06 08:13:52;;;;;;;7.93;2.08;;;;;;;13.15;100.00;101277.63;7394073;19;21152;-59
2022/08/06 08:16:19;;;;;;;4.63;1.85;;;;;;;13.28;100.00;101278.31;7394984;19;20013;-59
2022/08/06 08:18:45;;;;;;;7.97;2.13;;;;;;;13.38;100.00;101281.94;7395360;19;20014;-59
2022/08/06 08:21:12;;;;;;;3.85;1.88;;;;;;;13.47;100.00;101270.78;7394353;19;20015;-58
2022/08/06 08:23:40;;;;;;;4.07;2.10;;;;;;;13.56;100.00;101268.78;7394949;19;20014;-59
2022/08/06 08:26:06;;;;;;;5.90;1.90;;;;;;;13.64;100.00;101264.44;7395032;19;20389;-59
2022/08/06 08:28:33;;;;;;;4.90;1.75;;;;;;;13.82;100.00;101268.56;7393432;19;20074;-58
2022/08/06 08:31:01;;;;;;;7.93;2.75;;;;;;;13.93;100.00;101268.88;7394692;19;20018;-59
2022/08/06 08:33:31;;;;;;;4.40;1.65;;;;;;;14.04;100.00;101263.59;7394188;19;20042;-59
2022/08/06 08:35:57;;;;;;;2.60;1.52;;;;;;;14.15;100.00;101269.50;7393358;19;20478;-60
2022/08/06 08:38:24;;;;;;;3.03;1.88;;;;;;;14.23;100.00;101263.13;7390940;19;20015;-59
2022/08/06 08:40:53;;;;;;;3.45;1.40;;;;;;;14.35;100.00;101258.66;7392332;19;20017;-59
2022/08/06 08:43:24;;;;;;;5.45;1.60;;;;;;;14.48;100.00;101264.09;7393087;19;20017;-59
2022/08/06 08:45:53;;;;;;;2.05;0.90;;;;;;;14.63;100.00;101260.19;7394113;19;20090;-59
2022/08/06 08:48:24;;;;;;;2.83;0.95;;;;;;;14.76;100.00;101252.38;7393061;19;20035;-59
2022/08/06 08:50:52;;;;;;;2.47;0.98;;;;;;;14.93;100.00;101253.59;7393778;19;20063;-59
2022/08/06 08:53:29;;;;;;;2.60;0.70;;;;;;;15.11;100.00;101255.56;7392497;19;20006;-60
2022/08/06 08:55:57;;;;;;;3.45;1.35;;;;;;;15.35;100.00;101241.59;7393172;19;20018;-60
2022/08/06 08:58:23;;;;;;;1.38;0.60;;;;;;;15.47;100.00;101243.44;7394193;19;20014;-58
2022/08/06 09:00:50;;;;;;;3.22;1.27;;;;;;;15.66;100.00;101245.66;7391852;19;20021;-59
2022/08/06 09:03:16;;;;;;;4.40;1.52;;;;;;;15.85;100.00;101246.34;7393697;19;20589;-59
2022/08/06 09:05:43;;;;;;;3.10;1.50;;;;;;;16.06;100.00;101236.03;7394158;19;20013;-59
2022/08/06 09:08:11;;;;;;;2.05;1.17;;;;;;;16.32;100.00;101228.63;7395643;19;20077;-59
2022/08/06 09:10:37;;;;;;;3.17;1.50;;;;;;;16.70;100.00;101233.47;7392412;19;20025;-59
2022/08/06 09:13:03;;;;;;;2.35;0.93;;;;;;;17.02;100.00;101226.88;7396950;19;20011;-59
2022/08/06 09:15:30;;;;;;;3.75;1.15;;;;;;;17.24;100.00;101227.19;7390580;19;20003;-59
2022/08/06 09:17:56;;;;;;;7.53;1.38;;;;;;;17.43;100.00;101225.72;7395538;19;20010;-59
2022/08/06 09:20:22;;;;;;;2.97;1.48;;;;;;;17.49;100.00;101226.56;7391341;19;20018;-60
2022/08/06 09:22:52;;;;;;;4.13;1.13;;;;;;;17.46;100.00;101230.34;7392936;19;20037;-60
2022/08/06 09:25:37;;;;;;;16.60;1.23;;;;;;;17.42;100.00;101232.59;7393241;19;20011;-60
2022/08/06 09:28:25;;;;;;;23.88;3.22;;;;;;;17.51;100.00;101232.53;7396444;19;20348;-60
2022/08/06 09:31:07;;;;;;;4.95;1.52;;;;;;;17.50;100.00;101230.94;7390306;19;20018;-60
2022/08/06 09:33:36;;;;;;;2.50;0.80;;;;;;;17.87;100.00;101248.91;7393709;19;20559;-60
2022/08/06 09:36:13;;;;;;;8.02;0.77;;;;;;;18.13;100.00;101249.75;7393478;19;20014;-60
2022/08/06 09:38:59;;;;;;;0.45;0.35;;;;;;;18.45;100.00;101249.91;7390611;19;20007;-60
2022/08/06 09:41:28;;;;;;;0.95;0.52;;;;;;;18.37;100.00;101252.34;7393570;19;20014;-60
2022/08/06 09:43:56;;;;;;;2.13;0.85;;;;;;;18.32;100.00;101255.09;7392160;19;20010;-60
2022/08/06 09:46:40;;;;;;;2.22;0.40;;;;;;;18.15;100.00;101257.69;7390066;19;20051;-60
2022/08/06 09:49:08;;;;;;;2.63;0.60;;;;;;;17.85;100.00;101257.06;7388836;19;20021;-60
2022/08/06 09:51:34;;;;;;;4.90;1.27;;;;;;;17.95;100.00;101258.47;7391743;19;20019;-60
2022/08/06 09:54:03;;;;;;;0.95;0.70;;;;;;;18.08;100.00;101253.25;7391830;19;20701;-59
2022/08/06 09:56:29;;;;;;;2.38;1.27;;;;;;;18.21;100.00;101247.28;7393665;19;20040;-60
2022/08/06 09:59:00;;;;;;;2.25;0.77;;;;;;;18.58;100.00;101244.66;7391104;19;20103;-60
2022/08/06 10:01:27;;;;;;;2.10;0.47;;;;;;;18.92;100.00;101244.47;7391903;19;20027;-60
2022/08/06 10:03:56;;;;;;;3.60;0.90;;;;;;;19.01;100.00;101248.38;7390914;19;20014;-59
2022/08/06 10:06:24;;;;;;;0.63;0.32;;;;;;;19.10;100.00;101251.03;7391478;19;20024;-59
2022/08/06 10:09:08;;;;;;;0.95;0.52;;;;;;;19.46;100.00;101245.44;7393153;19;20802;-59
2022/08/06 10:11:39;;;;;;;0.73;0.60;;;;;;;19.76;100.00;101248.69;7393821;19;20014;-59
2022/08/06 10:14:21;;;;;;;2.20;0.50;;;;;;;19.83;100.00;101250.28;7391285;19;20021;-59
2022/08/06 10:17:08;;;;;;;0.25;0.20;;;;;;;19.71;100.00;101254.31;7393183;19;20069;-60
2022/08/06 10:19:36;;;;;;;1.30;0.35;;;;;;;19.35;100.00;101244.56;7390410;19;20010;-61
2022/08/06 10:22:11;;;;;;;3.00;0.55;;;;;;;18.99;100.00;101240.44;7391061;19;20379;-59
2022/08/06 10:24:44;;;;;;;1.20;0.52;;;;;;;18.97;100.00;101248.63;7390324;19;20014;-59
2022/08/06 10:27:13;;;;;;;0.90;0.45;;;;;;;18.78;100.00;101244.56;7391831;19;20006;-59
2022/08/06 10:29:49;;;;;;;1.30;0.70;;;;;;;18.82;100.00;101245.13;7389134;19;20007;-59
2022/08/06 10:32:20;;;;;;;4.63;0.43;;;;;;;19.00;100.00;101241.97;7390494;19;20082;-59
2022/08/06 10:34:48;;;;;;;;;;;;;;;19.30;100.00;101250.91;7391781;19;20049;-60
2022/08/06 10:37:16;;;;;;;0.45;0.43;;;;;;;19.42;100.00;101238.47;7392888;19;20281;-60
2022/08/06 10:39:55;;;;;;;1.05;0.47;;;;;;;19.26;100.00;101239.84;7390213;19;20014;-59
2022/08/06 10:42:23;;;;;;;2.40;0.77;;;;;;;19.62;100.00;101246.81;7393576;19;20031;-59
2022/08/06 10:44:53;;;;;;;2.67;0.85;;;;;;;20.02;100.00;101240.06;7390210;19;20027;-60
2022/08/06 10:47:21;;;;;;;0.73;0.20;;;;;;;19.98;100.00;101248.03;7391794;19;20359;-59
2022/08/06 10:49:48;;;;;;;2.28;0.55;;;;;;;19.64;100.00;101242.19;7388827;19;20010;-61
2022/08/06 10:52:14;;;;;;;0.73;0.55;;;;;;;19.54;100.00;101246.50;7389920;19;20035;-59
2022/08/06 10:54:40;;;;;;;2.95;0.75;;;;;;;19.35;100.00;101245.34;7389620;19;20014;-60
2022/08/06 10:57:09;;;;;;;0.43;0.22;;;;;;;19.56;100.00;101232.66;7392676;19;20015;-60
2022/08/06 10:59:35;;;;;;;13.90;0.60;;;;;;;19.86;100.00;101227.41;7388275;19;20034;-59
2022/08/06 11:02:07;;;;;;;0.35;0.32;;;;;;;20.23;100.00;101227.31;7389753;19;20015;-59
2022/08/06 11:04:57;;;;;;;1.27;0.35;;;;;;;20.49;100.00;101239.22;7389372;19;20011;-58
2022/08/06 11:07:58;;;;;;;1.33;0.38;;;;;;;20.76;100.00;101230.03;7393310;19;20044;-59
2022/08/06 11:10:55;;;;;;;0.68;0.30;;;;;;;20.73;100.00;101236.69;7389339;19;20031;-59
2022/08/06 11:13:52;;;;;;;1.27;0.20;;;;;;;20.35;100.00;101228.91;7389712;19;20034;-59
2022/08/06 11:16:27;;;;;;;0.22;0.22;;;;;;;19.97;100.00;101226.69;7389633;19;20010;-60
2022/08/06 11:19:09;;;;;;;0.65;0.20;;;;;;;19.61;100.00;101228.31;7388785;19;20038;-60
2022/08/06 11:21:41;;;;;;;3.15;0.60;;;;;;;19.77;100.00;101241.78;7389587;19;20018;-60
2022/08/06 11:24:08;;;;;;;0.68;0.28;;;;;;;20.20;100.00;101228.31;7389773;19;20010;-58
2022/08/06 11:26:37;;;;;;;1.27;0.80;;;;;;;20.65;100.00;101229.22;7390774;19;20088;-58
2022/08/06 11:29:08;;;;;;;1.67;0.15;;;;;;;20.73;100.00;101231.03;7387615;19;20033;-59
2022/08/06 11:31:38;;;;;;;0.47;0.32;;;;;;;20.46;100.00;101222.50;7388767;19;20015;-59
2022/08/06 11:34:14;;;;;;;0.60;0.47;;;;;;;19.98;100.00;101223.34;7389320;19;20011;-58
2022/08/06 11:36:53;;;;;;;1.85;0.63;;;;;;;19.55;100.00;101225.47;7389233;19;20421;-59
2022/08/06 11:39:21;;;;;;;0.95;0.38;;;;;;;19.79;100.00;101221.47;7392934;19;20348;-58
2022/08/06 11:41:56;;;;;;;1.10;0.38;;;;;;;20.30;100.00;101218.34;7398177;19;20467;-58